Time;durP1;ratioP1;P1;durP2;ratioP2;P2;SDS_P1;SDS_P2;PMS_P1;PMS_P2;Temp;Humidity;BMP_temperature;BMP_pressure;BME280_temperature;BME280_humidity;BME280_pressure;Samples;Min_cycle;Max_cycle;Signal;HPM_P1;HPM_P2
2023/06/27 04:08:35;;;;;;;3.20;1.40;;;18.50;90.00;;;;;;4979268;28;20484;-66
2023/06/27 04:11:00;;;;;;;1.17;1.17;;;18.50;90.20;;;;;;4979355;28;20488;-64
2023/06/27 04:13:27;;;;;;;3.40;1.20;;;18.50;90.10;;;;;;4980381;28;20253;-66
2023/06/27 04:15:52;;;;;;;1.53;1.27;;;18.50;90.50;;;;;;4980460;28;20234;-65
2023/06/27 04:18:18;;;;;;;1.40;1.30;;;18.50;90.50;;;;;;4980687;28;20479;-66
2023/06/27 04:20:44;;;;;;;0.87;0.87;;;18.50;90.20;;;;;;4980612;28;20186;-65
2023/06/27 04:23:09;;;;;;;2.00;1.13;;;18.60;90.40;;;;;;4980390;28;20173;-66
2023/06/27 04:25:36;;;;;;;1.53;1.43;;;18.70;90.10;;;;;;4980372;28;20222;-66
2023/06/27 04:28:02;;;;;;;1.67;1.40;;;18.60;90.20;;;;;;4980607;28;20238;-66
2023/06/27 04:30:29;;;;;;;1.30;1.23;;;18.60;90.10;;;;;;4980599;28;20415;-67
2023/06/27 04:32:54;;;;;;;1.33;1.23;;;18.50;90.30;;;;;;4980503;28;20179;-66
2023/06/27 04:35:20;;;;;;;1.40;1.23;;;18.60;90.70;;;;;;4978200;28;20441;-66
2023/06/27 04:37:46;;;;;;;2.60;2.40;;;18.60;90.80;;;;;;4976428;28;20184;-65
2023/06/27 04:40:12;;;;;;;1.97;1.87;;;18.70;90.30;;;;;;4977581;28;20172;-65
2023/06/27 04:42:38;;;;;;;1.47;1.37;;;18.70;90.40;;;;;;4977198;28;20395;-66
2023/06/27 04:45:05;;;;;;;1.33;1.23;;;18.70;90.30;;;;;;4975607;28;20960;-66
2023/06/27 04:47:32;;;;;;;1.50;1.17;;;18.70;90.60;;;;;;4976065;28;20401;-66
2023/06/27 04:49:58;;;;;;;1.40;1.30;;;18.70;90.60;;;;;;4975634;28;20483;-68
2023/06/27 04:52:24;;;;;;;1.73;1.63;;;18.70;90.20;;;;;;4977165;28;20421;-66
2023/06/27 04:54:51;;;;;;;1.50;1.40;;;18.70;90.30;;;;;;4976663;28;20437;-67
2023/06/27 04:57:17;;;;;;;1.23;1.23;;;18.70;90.00;;;;;;4976948;28;20644;-66
2023/06/27 04:59:43;;;;;;;1.70;1.50;;;18.70;90.20;;;;;;4977108;28;20754;-67
2023/06/27 05:02:09;;;;;;;0.90;0.90;;;18.70;89.50;;;;;;4976827;28;20949;-66
2023/06/27 05:04:35;;;;;;;1.27;1.20;;;18.70;89.10;;;;;;4975902;28;20496;-67
2023/06/27 05:07:01;;;;;;;1.17;1.10;;;18.60;89.40;;;;;;4960717;28;20782;-63
2023/06/27 05:09:27;;;;;;;1.43;1.33;;;18.60;90.00;;;;;;4957459;28;20387;-64
2023/06/27 05:11:53;;;;;;;1.63;1.27;;;18.60;90.40;;;;;;4957431;28;20181;-66
2023/06/27 05:14:18;;;;;;;2.50;1.83;;;18.60;90.40;;;;;;4957125;29;20422;-67
2023/06/27 05:16:44;;;;;;;1.10;1.10;;;18.70;90.20;;;;;;4957184;29;20604;-66
2023/06/27 05:19:09;;;;;;;1.97;1.27;;;18.80;90.10;;;;;;4957359;29;20173;-65
2023/06/27 05:21:35;;;;;;;1.40;1.30;;;18.80;90.50;;;;;;4956247;29;20195;-64
2023/06/27 05:24:04;;;;;;;1.63;1.30;;;18.90;90.10;;;;;;4956611;28;20173;-65
2023/06/27 05:26:32;;;;;;;0.93;0.93;;;19.00;90.10;;;;;;4957070;29;20450;-67
2023/06/27 05:28:59;;;;;;;1.73;1.07;;;19.10;90.50;;;;;;4955927;29;20805;-65
2023/06/27 05:31:28;;;;;;;2.27;2.07;;;19.20;90.30;;;;;;4957187;28;20423;-67
2023/06/27 05:33:54;;;;;;;2.97;1.47;;;19.30;88.10;;;;;;4956587;29;20420;-64
2023/06/27 05:36:20;;;;;;;1.70;1.30;;;19.40;88.00;;;;;;4956628;28;20482;-66
2023/06/27 05:38:46;;;;;;;3.87;2.43;;;19.40;87.60;;;;;;4966418;28;20514;-66
2023/06/27 05:41:11;;;;;;;2.00;1.10;;;19.50;87.60;;;;;;4976068;28;20456;-66
2023/06/27 05:43:37;;;;;;;1.13;1.03;;;19.60;87.90;;;;;;4974357;28;20177;-64
2023/06/27 05:46:03;;;;;;;1.60;1.50;;;19.60;88.70;;;;;;4956584;28;20236;-65
2023/06/27 05:48:28;;;;;;;1.30;1.30;;;19.80;88.90;;;;;;4955974;28;20224;-65
2023/06/27 05:50:54;;;;;;;1.90;1.50;;;19.90;88.30;;;;;;4956307;28;20178;-66
2023/06/27 05:53:19;;;;;;;1.37;1.37;;;20.00;88.10;;;;;;4956244;28;20187;-67
2023/06/27 05:55:45;;;;;;;1.03;1.03;;;20.10;87.60;;;;;;4956884;28;20690;-66
2023/06/27 05:58:11;;;;;;;3.80;1.27;;;20.30;87.90;;;;;;4975500;28;20179;-67
2023/06/27 06:00:37;;;;;;;1.13;1.03;;;20.50;88.20;;;;;;4975781;28;20176;-66
2023/06/27 06:03:02;;;;;;;2.70;1.33;;;20.70;85.70;;;;;;4975525;28;20168;-67
2023/06/27 06:05:28;;;;;;;1.00;1.00;;;20.90;85.20;;;;;;4975258;28;20439;-66
2023/06/27 06:07:54;;;;;;;1.27;1.20;;;21.00;83.30;;;;;;4975665;28;20281;-66
2023/06/27 06:10:21;;;;;;;1.23;1.13;;;21.10;83.10;;;;;;4975273;28;20172;-66
2023/06/27 06:12:47;;;;;;;2.37;2.17;;;21.30;83.60;;;;;;4975337;28;20414;-67
2023/06/27 06:15:12;;;;;;;2.20;1.40;;;21.30;83.30;;;;;;4974895;28;20451;-66
2023/06/27 06:17:38;;;;;;;1.17;1.10;;;21.40;81.50;;;;;;4975253;28;20172;-67
2023/06/27 06:20:09;;;;;;;1.27;1.17;;;21.40;82.50;;;;;;4975295;28;20177;-66
2023/06/27 06:22:35;;;;;;;1.33;1.20;;;21.30;81.60;;;;;;4975373;28;20180;-64
2023/06/27 06:25:01;;;;;;;1.50;1.40;;;21.40;81.20;;;;;;4974981;28;20413;-64
2023/06/27 06:27:26;;;;;;;1.37;1.27;;;21.30;82.50;;;;;;4975574;28;20889;-64
2023/06/27 06:29:52;;;;;;;1.87;1.40;;;21.30;82.60;;;;;;4974978;28;20193;-65
2023/06/27 06:32:18;;;;;;;1.10;1.10;;;21.30;82.00;;;;;;4975178;28;20181;-65
2023/06/27 06:34:43;;;;;;;0.90;0.90;;;21.40;82.00;;;;;;4974555;28;20201;-66
2023/06/27 06:37:09;;;;;;;0.80;0.80;;;21.50;82.70;;;;;;4975087;28;20259;-66
2023/06/27 06:39:35;;;;;;;1.90;1.80;;;21.70;81.60;;;;;;4975013;28;20172;-67
2023/06/27 06:42:00;;;;;;;2.50;2.30;;;21.90;80.00;;;;;;4974852;28;20184;-71
2023/06/27 06:44:26;;;;;;;1.30;1.20;;;22.20;80.30;;;;;;4974551;28;20431;-68
2023/06/27 06:46:51;;;;;;;0.90;0.90;;;22.40;79.00;;;;;;4975026;28;20677;-69
2023/06/27 06:49:17;;;;;;;0.70;0.70;;;22.50;74.80;;;;;;4974870;28;20180;-70
2023/06/27 06:51:43;;;;;;;0.80;0.80;;;22.50;73.10;;;;;;4974815;28;20618;-71
2023/06/27 06:54:08;;;;;;;3.90;1.20;;;22.60;72.50;;;;;;4974570;28;20173;-70
2023/06/27 06:56:34;;;;;;;1.90;0.87;;;22.60;70.40;;;;;;4975018;28;20203;-66
2023/06/27 06:58:59;;;;;;;1.00;1.00;;;22.50;70.10;;;;;;4974045;28;20176;-69
2023/06/27 07:01:28;;;;;;;1.37;1.27;;;22.50;71.00;;;;;;4974772;28;20168;-70
2023/06/27 07:03:54;;;;;;;0.80;0.80;;;22.70;70.40;;;;;;4973062;28;20182;-67
2023/06/27 07:06:20;;;;;;;1.40;1.40;;;22.70;72.30;;;;;;4974476;28;20512;-67
2023/06/27 07:08:45;;;;;;;1.17;1.00;;;22.80;69.50;;;;;;4974730;28;20483;-69
2023/06/27 07:11:11;;;;;;;1.33;1.23;;;22.90;68.50;;;;;;4974468;28;20168;-67
2023/06/27 07:13:36;;;;;;;1.20;1.20;;;23.00;69.30;;;;;;4974222;28;20183;-73
2023/06/27 07:16:02;;;;;;;0.80;0.80;;;23.00;68.70;;;;;;4974448;28;20250;-69
2023/06/27 07:18:28;;;;;;;1.70;1.20;;;23.00;68.00;;;;;;4974408;28;20172;-70
2023/06/27 07:20:53;;;;;;;1.20;1.10;;;23.10;69.90;;;;;;4974352;28;20195;-70
2023/06/27 07:23:19;;;;;;;1.63;1.40;;;23.20;70.50;;;;;;4974131;28;20504;-72
2023/06/27 07:25:44;;;;;;;1.27;1.17;;;23.20;69.40;;;;;;4974296;28;20199;-70
2023/06/27 07:28:10;;;;;;;0.90;0.90;;;23.20;67.90;;;;;;4974303;28;20176;-71
2023/06/27 07:30:35;;;;;;;0.80;0.80;;;23.30;68.40;;;;;;4974382;28;20646;-71
2023/06/27 07:33:01;;;;;;;0.80;0.80;;;23.40;67.70;;;;;;4972745;28;20254;-72
2023/06/27 07:35:29;;;;;;;1.30;1.20;;;23.50;67.20;;;;;;4973791;28;20204;-71
2023/06/27 07:37:54;;;;;;;1.07;1.07;;;23.80;67.50;;;;;;4974750;28;20196;-70
2023/06/27 07:40:20;;;;;;;2.33;1.00;;;24.40;65.90;;;;;;4974255;28;20442;-68
2023/06/27 07:42:45;;;;;;;0.80;0.80;;;24.90;64.50;;;;;;4974133;28;20648;-69
2023/06/27 07:45:11;;;;;;;1.27;0.90;;;25.30;63.40;;;;;;4973697;28;20203;-70
2023/06/27 07:47:36;;;;;;;0.83;0.80;;;25.60;62.80;;;;;;4974060;28;20173;-69
2023/06/27 07:50:02;;;;;;;3.00;1.27;;;26.30;61.70;;;;;;4974119;28;20168;-69
2023/06/27 07:52:30;;;;;;;1.00;1.00;;;27.10;59.70;;;;;;4974103;28;20587;-71
2023/06/27 07:54:55;;;;;;;1.80;1.10;;;28.10;59.80;;;;;;4973606;28;20189;-70
2023/06/27 07:57:21;;;;;;;1.10;1.10;;;29.10;57.90;;;;;;4974327;28;20886;-71
2023/06/27 07:59:46;;;;;;;2.40;1.47;;;29.50;56.30;;;;;;4973863;28;20180;-73
2023/06/27 08:02:12;;;;;;;1.00;1.00;;;29.30;55.40;;;;;;4973817;28;20204;-71
2023/06/27 08:04:38;;;;;;;1.77;1.30;;;29.10;55.90;;;;;;4973549;28;20189;-71
2023/06/27 08:07:04;;;;;;;1.47;1.37;;;29.10;56.10;;;;;;4973628;28;20207;-69
2023/06/27 08:09:29;;;;;;;4.83;0.93;;;29.10;55.60;;;;;;4974225;28;20180;-69
2023/06/27 08:11:55;;;;;;;1.33;1.23;;;28.60;55.60;;;;;;4977315;28;20554;-71
2023/06/27 08:14:20;;;;;;;1.10;1.10;;;28.30;56.40;;;;;;4977171;28;20270;-70
2023/06/27 08:16:46;;;;;;;1.40;1.30;;;27.90;56.30;;;;;;4977441;28;20741;-68
2023/06/27 08:19:11;;;;;;;1.17;1.10;;;27.40;56.80;;;;;;4977607;28;20566;-68
2023/06/27 08:21:37;;;;;;;1.40;1.30;;;27.30;57.30;;;;;;4977487;28;20184;-67
2023/06/27 08:24:03;;;;;;;1.60;1.50;;;27.20;57.90;;;;;;4976767;28;20169;-71
2023/06/27 08:26:29;;;;;;;1.87;1.77;;;27.20;58.30;;;;;;4976114;28;20613;-72
2023/06/27 08:28:55;;;;;;;1.00;0.90;;;27.20;58.20;;;;;;4977325;28;20191;-67
2023/06/27 08:31:20;;;;;;;1.17;0.83;;;27.30;57.60;;;;;;4976558;28;20888;-67
2023/06/27 08:33:46;;;;;;;1.47;1.37;;;27.10;58.30;;;;;;4976660;28;20625;-68
2023/06/27 08:36:11;;;;;;;1.30;1.20;;;27.40;58.80;;;;;;4976789;28;20334;-67
2023/06/27 08:38:37;;;;;;;1.50;1.40;;;28.10;58.30;;;;;;4976780;28;20255;-67
2023/06/27 08:41:03;;;;;;;1.30;1.20;;;28.70;57.20;;;;;;4977202;28;20176;-68
2023/06/27 08:43:29;;;;;;;1.50;1.40;;;29.00;55.90;;;;;;4976911;28;20643;-67
2023/06/27 08:45:55;;;;;;;1.50;1.40;;;29.00;55.50;;;;;;4976469;28;20439;-70
2023/06/27 08:48:21;;;;;;;1.30;1.20;;;29.00;54.80;;;;;;4977124;28;20168;-67
2023/06/27 08:50:51;;;;;;;1.37;1.27;;;28.80;54.90;;;;;;4976956;28;20172;-66
2023/06/27 08:53:19;;;;;;;1.40;1.30;;;28.40;55.20;;;;;;4976579;28;20953;-71
2023/06/27 08:55:47;;;;;;;1.40;1.30;;;27.80;55.80;;;;;;4976375;28;20418;-71
2023/06/27 08:58:17;;;;;;;1.20;1.20;;;27.20;56.60;;;;;;4976733;28;20427;-71
2023/06/27 09:00:44;;;;;;;1.27;1.00;;;26.40;58.10;;;;;;4976514;28;20394;-67
2023/06/27 09:03:11;;;;;;;1.60;1.50;;;26.20;58.30;;;;;;4976113;28;20427;-68
2023/06/27 09:05:37;;;;;;;1.80;1.27;;;26.00;58.80;;;;;;4970249;28;20443;-68
2023/06/27 09:08:03;;;;;;;1.70;1.60;;;25.70;60.10;;;;;;4976165;28;20438;-69
2023/06/27 09:10:29;;;;;;;2.43;1.40;;;25.60;59.40;;;;;;4976206;28;20437;-67
2023/06/27 09:12:54;;;;;;;1.40;1.30;;;25.50;59.20;;;;;;4974568;28;20426;-69
2023/06/27 09:15:21;;;;;;;1.20;1.10;;;25.60;59.50;;;;;;4974166;28;20208;-67
2023/06/27 09:17:47;;;;;;;1.10;1.10;;;25.70;60.00;;;;;;4976154;28;20191;-68
2023/06/27 09:20:17;;;;;;;1.27;1.17;;;26.10;59.40;;;;;;4972967;28;20387;-69
2023/06/27 09:22:43;;;;;;;1.63;1.30;;;26.50;58.80;;;;;;4974789;28;20434;-69
2023/06/27 09:25:19;;;;;;;1.70;1.30;;;27.40;58.20;;;;;;4973849;28;20862;-72
2023/06/27 09:27:45;;;;;;;1.30;1.30;;;27.80;57.20;;;;;;4974414;28;20183;-72
2023/06/27 09:30:12;;;;;;;2.90;1.60;;;28.50;56.40;;;;;;4975256;28;20406;-72
2023/06/27 09:32:58;;;;;;;1.47;1.37;;;29.30;54.80;;;;;;4976008;28;20423;-73
2023/06/27 09:35:25;;;;;;;1.37;1.20;;;30.00;54.10;;;;;;4974940;28;20517;-71
2023/06/27 09:37:52;;;;;;;1.50;1.40;;;30.50;53.60;;;;;;4975301;28;20425;-71
2023/06/27 09:40:24;;;;;;;1.80;1.70;;;30.30;52.60;;;;;;4975791;28;20421;-71
2023/06/27 09:42:58;;;;;;;1.40;1.30;;;30.00;52.80;;;;;;4974735;28;20495;-72
2023/06/27 09:45:24;;;;;;;3.80;3.33;;;29.90;53.00;;;;;;4966626;28;20242;-74
2023/06/27 09:47:51;;;;;;;1.40;1.30;;;29.80;52.80;;;;;;4975488;28;20430;-75
2023/06/27 09:50:17;;;;;;;1.10;1.10;;;29.70;53.10;;;;;;4975097;28;20398;-72
2023/06/27 09:52:53;;;;;;;1.63;1.53;;;29.10;53.30;;;;;;4974766;28;20489;-73
2023/06/27 09:55:22;;;;;;;1.67;1.57;;;28.50;53.80;;;;;;4955767;28;20454;-74
2023/06/27 09:57:48;;;;;;;1.23;1.13;;;28.00;55.70;;;;;;4963633;28;20395;-71
2023/06/27 10:00:17;;;;;;;1.63;1.53;;;27.50;55.50;;;;;;4966462;28;20472;-69
2023/06/27 10:02:49;;;;;;;1.40;1.33;;;27.30;56.20;;;;;;4975552;28;20252;-69
2023/06/27 10:05:16;;;;;;;1.50;1.40;;;27.60;56.10;;;;;;4974801;28;20433;-68
2023/06/27 10:07:43;;;;;;;1.53;1.40;;;28.00;56.00;;;;;;4975354;28;20461;-70
2023/06/27 10:10:09;;;;;;;1.10;1.00;;;28.30;56.20;;;;;;4974950;28;20424;-71
2023/06/27 10:12:36;;;;;;;3.70;1.17;;;28.10;55.70;;;;;;4974124;28;20489;-68
2023/06/27 10:15:03;;;;;;;1.10;1.10;;;28.00;56.10;;;;;;4974632;28;20410;-68
2023/06/27 10:17:28;;;;;;;2.20;2.00;;;28.00;54.70;;;;;;4974221;28;20413;-71
2023/06/27 10:19:56;;;;;;;1.60;1.50;;;27.90;55.00;;;;;;4973440;28;20526;-68
2023/06/27 10:22:29;;;;;;;1.10;1.10;;;27.90;54.20;;;;;;4971945;28;20405;-69
2023/06/27 10:25:03;;;;;;;2.00;1.17;;;27.80;54.90;;;;;;4955222;28;20436;-68
2023/06/27 10:27:36;;;;;;;1.60;1.50;;;27.80;54.70;;;;;;4958655;28;20415;-68
2023/06/27 10:30:17;;;;;;;1.20;1.10;;;27.90;54.70;;;;;;4953918;28;20387;-69
2023/06/27 10:32:46;;;;;;;2.33;1.17;;;28.00;55.70;;;;;;4954933;28;20838;-68
2023/06/27 10:35:24;;;;;;;1.20;1.10;;;28.20;55.60;;;;;;4954974;28;20434;-68
2023/06/27 10:38:19;;;;;;;1.50;1.37;;;28.30;55.20;;;;;;4956957;28;20432;-71
2023/06/27 10:41:02;;;;;;;1.60;1.50;;;28.00;54.40;;;;;;4964495;28;20443;-70
2023/06/27 10:43:45;;;;;;;1.53;1.43;;;27.80;55.40;;;;;;4972851;28;20743;-70
2023/06/27 10:46:23;;;;;;;1.30;1.13;;;27.80;55.40;;;;;;4972645;28;20436;-69
2023/06/27 10:48:50;;;;;;;1.50;1.40;;;27.70;54.70;;;;;;4972770;28;20390;-69
2023/06/27 10:51:21;;;;;;;1.47;1.37;;;27.60;54.70;;;;;;4971996;28;20557;-70
2023/06/27 10:54:09;;;;;;;2.03;1.60;;;27.70;55.30;;;;;;4972838;28;20406;-68
2023/06/27 10:56:40;;;;;;;1.60;1.50;;;27.80;55.00;;;;;;4972400;28;20462;-70
2023/06/27 10:59:09;;;;;;;1.43;1.37;;;27.80;54.40;;;;;;4970085;28;20839;-67
2023/06/27 11:01:40;;;;;;;1.40;1.17;;;27.60;54.50;;;;;;4972737;28;20398;-70
2023/06/27 11:04:25;;;;;;;1.57;1.47;;;27.40;55.30;;;;;;4970751;28;20395;-70
2023/06/27 11:06:59;;;;;;;1.63;1.53;;;27.10;55.30;;;;;;4974490;28;20437;-70
2023/06/27 11:09:27;;;;;;;1.47;1.00;;;26.90;56.20;;;;;;4974528;28;20790;-68
2023/06/27 11:12:14;;;;;;;1.20;1.10;;;26.60;55.70;;;;;;4974430;28;20407;-69
2023/06/27 11:14:42;;;;;;;0.90;0.90;;;26.00;56.10;;;;;;4974042;28;21016;-69
2023/06/27 11:17:08;;;;;;;1.10;1.10;;;25.90;57.20;;;;;;4974336;28;20448;-71
2023/06/27 11:19:36;;;;;;;1.00;1.00;;;25.90;58.00;;;;;;4974528;28;20410;-70
2023/06/27 11:22:02;;;;;;;1.50;1.30;;;26.00;57.20;;;;;;4974311;28;20253;-67
2023/06/27 11:24:29;;;;;;;1.30;1.20;;;26.10;57.00;;;;;;4972009;28;20513;-68
2023/06/27 11:26:56;;;;;;;1.63;1.53;;;26.00;56.60;;;;;;4972948;28;20394;-66
2023/06/27 11:29:22;;;;;;;0.90;0.90;;;25.80;57.20;;;;;;4972818;28;20415;-68
2023/06/27 11:31:49;;;;;;;1.53;1.10;;;25.70;57.20;;;;;;4954959;29;20411;-68
2023/06/27 11:34:16;;;;;;;1.60;1.43;;;25.70;57.90;;;;;;4970848;28;20448;-67
2023/06/27 11:36:42;;;;;;;1.93;1.47;;;25.60;57.40;;;;;;4973558;28;20461;-66
2023/06/27 11:39:17;;;;;;;2.20;1.30;;;25.60;57.50;;;;;;4956280;28;20782;-66
2023/06/27 11:41:44;;;;;;;1.43;1.37;;;25.70;57.50;;;;;;4954962;29;20405;-71
2023/06/27 11:44:17;;;;;;;1.20;1.10;;;26.00;58.00;;;;;;4967145;28;20498;-67
2023/06/27 11:46:49;;;;;;;1.63;1.53;;;26.00;56.90;;;;;;4962753;28;20447;-69
2023/06/27 11:49:16;;;;;;;1.30;1.30;;;26.10;57.20;;;;;;4958074;28;20419;-69
2023/06/27 11:51:41;;;;;;;1.67;0.90;;;26.20;56.70;;;;;;4957400;28;20418;-68
2023/06/27 11:54:08;;;;;;;1.10;1.00;;;26.10;55.90;;;;;;4958131;28;20898;-68
2023/06/27 11:56:38;;;;;;;2.30;1.37;;;26.10;56.10;;;;;;4962339;28;20799;-69
2023/06/27 11:59:06;;;;;;;1.47;1.37;;;26.00;56.40;;;;;;4958177;28;20421;-68
2023/06/27 12:01:38;;;;;;;1.33;1.27;;;26.10;57.40;;;;;;4960500;28;20774;-68
2023/06/27 12:04:11;;;;;;;1.30;1.20;;;26.10;57.00;;;;;;4975238;28;20385;-67
2023/06/27 12:06:37;;;;;;;1.00;1.00;;;26.10;57.40;;;;;;4976877;28;20433;-68
2023/06/27 12:09:07;;;;;;;1.17;1.10;;;26.20;55.90;;;;;;4977379;28;20417;-67
2023/06/27 12:11:37;;;;;;;1.50;1.40;;;26.20;56.20;;;;;;4965014;28;20183;-68
2023/06/27 12:14:04;;;;;;;1.30;1.20;;;26.10;55.60;;;;;;4957763;29;20417;-69
2023/06/27 12:16:33;;;;;;;1.00;1.00;;;26.10;57.00;;;;;;4970336;28;20443;-68
2023/06/27 12:19:07;;;;;;;0.87;0.87;;;26.20;56.10;;;;;;4977546;28;20456;-68
2023/06/27 12:21:33;;;;;;;1.60;1.20;;;26.20;55.60;;;;;;4977167;28;20469;-71
2023/06/27 12:23:58;;;;;;;1.40;1.23;;;26.30;56.60;;;;;;4977151;28;20415;-69
2023/06/27 12:26:24;;;;;;;1.50;1.40;;;26.40;57.30;;;;;;4977263;28;20199;-69
2023/06/27 12:29:04;;;;;;;1.53;1.43;;;26.60;56.60;;;;;;4975427;28;20189;-68
2023/06/27 12:31:30;;;;;;;1.40;1.30;;;26.60;55.60;;;;;;4977002;28;20175;-70
2023/06/27 12:33:58;;;;;;;1.00;0.90;;;26.70;55.40;;;;;;4974535;28;20787;-72
2023/06/27 12:36:24;;;;;;;1.23;1.13;;;26.80;55.10;;;;;;4974923;28;20458;-69
2023/06/27 12:38:51;;;;;;;1.30;1.23;;;26.70;55.90;;;;;;4975965;28;20489;-71
2023/06/27 12:41:18;;;;;;;1.60;1.13;;;26.80;55.60;;;;;;4976053;28;20928;-68
2023/06/27 12:43:43;;;;;;;1.53;1.30;;;26.60;55.20;;;;;;4975390;28;20808;-68
2023/06/27 12:46:09;;;;;;;1.07;1.00;;;26.30;55.00;;;;;;4976533;28;20446;-71
2023/06/27 12:48:35;;;;;;;1.00;1.00;;;26.00;55.60;;;;;;4968489;28;20648;-68
2023/06/27 12:51:02;;;;;;;1.30;1.27;;;25.90;55.60;;;;;;4976333;28;20185;-71
2023/06/27 12:53:28;;;;;;;0.80;0.80;;;25.70;56.40;;;;;;4975736;28;20498;-72
2023/06/27 12:55:54;;;;;;;2.10;1.87;;;25.40;57.10;;;;;;4975214;28;20468;-71
2023/06/27 12:58:21;;;;;;;1.17;1.17;;;25.40;58.20;;;;;;4975557;28;20430;-70
2023/06/27 13:00:47;;;;;;;1.03;1.03;;;25.50;57.70;;;;;;4976471;28;20188;-70
2023/06/27 13:03:13;;;;;;;1.07;0.90;;;25.50;56.30;;;;;;4964927;28;20429;-71
2023/06/27 13:05:39;;;;;;;1.17;1.17;;;25.50;56.40;;;;;;4976253;28;20200;-70
2023/06/27 13:08:06;;;;;;;1.30;1.20;;;25.40;57.70;;;;;;4972596;28;20494;-71
2023/06/27 13:10:31;;;;;;;1.20;1.10;;;25.50;57.70;;;;;;4967895;28;20222;-70
2023/06/27 13:12:57;;;;;;;1.20;1.20;;;25.70;58.50;;;;;;4958138;28;20391;-73
2023/06/27 13:15:23;;;;;;;1.30;1.20;;;25.90;57.60;;;;;;4959020;28;20206;-70
2023/06/27 13:17:49;;;;;;;1.40;1.30;;;26.00;56.80;;;;;;4957406;28;20418;-69
2023/06/27 13:20:16;;;;;;;1.10;1.10;;;26.20;57.20;;;;;;4956535;28;20425;-69
2023/06/27 13:22:42;;;;;;;1.43;1.33;;;26.30;56.80;;;;;;4963986;28;20598;-69
2023/06/27 13:25:09;;;;;;;1.20;1.20;;;26.40;56.70;;;;;;4955998;28;20829;-71
2023/06/27 13:27:36;;;;;;;1.33;1.33;;;26.50;55.90;;;;;;4970315;28;20392;-71
2023/06/27 13:30:03;;;;;;;1.67;1.57;;;26.50;55.70;;;;;;4974207;28;20841;-70
2023/06/27 13:32:31;;;;;;;1.40;1.30;;;26.40;55.80;;;;;;4972849;28;20469;-70
2023/06/27 13:34:57;;;;;;;1.50;1.40;;;26.40;55.70;;;;;;4956216;28;20882;-71
2023/06/27 13:37:23;;;;;;;2.57;1.37;;;26.40;55.50;;;;;;4956131;28;20452;-70
2023/06/27 13:39:50;;;;;;;1.10;1.10;;;26.30;55.20;;;;;;4955998;28;20372;-70
2023/06/27 13:42:16;;;;;;;1.57;1.47;;;26.20;55.20;;;;;;4956041;28;20409;-70
2023/06/27 13:44:42;;;;;;;0.93;0.93;;;26.30;55.20;;;;;;4955674;28;20873;-70
2023/06/27 13:47:09;;;;;;;1.37;1.27;;;26.50;54.10;;;;;;4956084;28;20428;-70
2023/06/27 13:49:50;;;;;;;1.70;1.60;;;26.60;53.80;;;;;;4954220;28;21011;-70
2023/06/27 13:52:16;;;;;;;1.07;1.07;;;26.60;54.10;;;;;;4956061;28;20425;-73
2023/06/27 13:54:41;;;;;;;1.90;1.37;;;26.70;53.80;;;;;;4961808;28;20979;-73
2023/06/27 13:57:09;;;;;;;1.40;1.27;;;26.80;53.40;;;;;;4956618;28;20244;-72
2023/06/27 13:59:36;;;;;;;1.60;1.50;;;26.80;53.10;;;;;;4960986;28;20202;-71
2023/06/27 14:02:04;;;;;;;1.33;1.23;;;26.70;52.90;;;;;;4974330;28;20419;-70
2023/06/27 14:04:30;;;;;;;1.17;1.17;;;26.50;52.40;;;;;;4975026;28;20432;-71
2023/06/27 14:06:55;;;;;;;1.60;1.50;;;26.30;53.50;;;;;;4975653;28;20411;-71
2023/06/27 14:09:21;;;;;;;1.50;1.40;;;26.20;52.10;;;;;;4975078;28;20176;-71
2023/06/27 14:11:50;;;;;;;1.70;1.60;;;26.00;53.50;;;;;;4975564;28;20173;-71
2023/06/27 14:14:16;;;;;;;1.47;1.37;;;26.10;53.00;;;;;;4975042;28;20522;-70
2023/06/27 14:16:42;;;;;;;1.30;1.20;;;26.20;52.60;;;;;;4974061;28;20483;-68
2023/06/27 14:19:07;;;;;;;0.90;0.90;;;26.20;52.70;;;;;;4975274;28;20442;-68
2023/06/27 14:21:36;;;;;;;1.53;1.43;;;26.00;52.20;;;;;;4975224;28;20531;-73
2023/06/27 14:24:03;;;;;;;1.57;1.00;;;25.80;52.10;;;;;;4974924;28;20248;-72
2023/06/27 14:26:29;;;;;;;1.07;1.07;;;25.80;52.10;;;;;;4975357;28;20463;-69
2023/06/27 14:28:54;;;;;;;2.20;1.20;;;25.60;52.20;;;;;;4974486;28;20809;-71
2023/06/27 14:31:20;;;;;;;1.60;1.50;;;25.60;53.00;;;;;;4974449;28;20236;-71
2023/06/27 14:33:46;;;;;;;1.30;1.20;;;25.60;54.30;;;;;;4972158;28;20658;-72
2023/06/27 14:36:11;;;;;;;1.10;1.10;;;25.90;53.90;;;;;;4973760;28;20498;-73
2023/06/27 14:38:37;;;;;;;2.20;1.40;;;26.00;52.80;;;;;;4973131;28;20180;-71
2023/06/27 14:41:03;;;;;;;1.03;1.03;;;26.10;53.10;;;;;;4956998;28;20212;-72
2023/06/27 14:43:30;;;;;;;1.60;1.50;;;26.10;53.20;;;;;;4974050;28;20599;-72
2023/06/27 14:45:55;;;;;;;1.43;1.33;;;26.20;53.40;;;;;;4974323;28;20188;-70
2023/06/27 14:48:21;;;;;;;2.20;1.57;;;26.20;52.40;;;;;;4973792;28;20836;-71
2023/06/27 14:50:47;;;;;;;4.03;2.30;;;26.10;52.50;;;;;;4974521;28;20172;-71
2023/06/27 14:53:13;;;;;;;1.60;1.50;;;26.10;52.70;;;;;;4973424;28;20236;-70
2023/06/27 14:55:38;;;;;;;1.23;1.23;;;26.10;52.40;;;;;;4972205;28;20441;-72
2023/06/27 14:58:04;;;;;;;1.30;1.10;;;26.20;53.10;;;;;;4973974;28;20209;-73
2023/06/27 15:00:31;;;;;;;1.40;1.30;;;26.20;52.60;;;;;;4972593;28;20259;-72
2023/06/27 15:02:57;;;;;;;4.80;2.30;;;26.30;53.60;;;;;;4972933;28;20176;-71
2023/06/27 15:05:23;;;;;;;1.47;1.37;;;26.40;53.10;;;;;;4973828;28;20813;-70
2023/06/27 15:07:48;;;;;;;1.60;1.10;;;26.40;52.70;;;;;;4974261;28;20197;-69
2023/06/27 15:10:14;;;;;;;1.30;1.20;;;26.30;53.50;;;;;;4974198;28;20479;-66
2023/06/27 15:12:40;;;;;;;0.90;0.90;;;26.30;53.00;;;;;;4974245;28;20228;-66
2023/06/27 15:15:06;;;;;;;1.50;1.40;;;26.30;53.70;;;;;;4973792;28;20266;-66
2023/06/27 15:17:33;;;;;;;1.10;1.10;;;26.20;52.90;;;;;;4974601;28;20586;-65
2023/06/27 15:19:59;;;;;;;1.03;1.03;;;26.10;53.70;;;;;;4973550;28;20592;-66
2023/06/27 15:22:24;;;;;;;3.33;1.40;;;25.90;53.80;;;;;;4974186;28;20420;-65
2023/06/27 15:24:51;;;;;;;1.03;1.03;;;25.80;54.50;;;;;;4967341;28;20495;-66
2023/06/27 15:27:17;;;;;;;1.67;1.57;;;25.70;54.90;;;;;;4955141;28;20180;-66
2023/06/27 15:29:43;;;;;;;1.30;1.30;;;25.60;55.60;;;;;;4954615;28;20420;-66
2023/06/27 15:32:09;;;;;;;1.47;1.37;;;25.60;55.50;;;;;;4954781;28;20439;-65
2023/06/27 15:34:36;;;;;;;0.90;0.90;;;25.60;55.70;;;;;;4973555;28;20204;-66
2023/06/27 15:37:02;;;;;;;1.33;1.30;;;25.60;55.40;;;;;;4973892;28;20470;-64
2023/06/27 15:39:28;;;;;;;1.47;1.37;;;25.40;55.20;;;;;;4974272;28;20916;-64
2023/06/27 15:41:55;;;;;;;1.50;1.40;;;25.40;55.30;;;;;;4973378;28;20499;-64
2023/06/27 15:44:21;;;;;;;1.43;1.30;;;25.30;54.80;;;;;;4973370;28;20168;-64
2023/06/27 15:46:47;;;;;;;1.37;1.30;;;25.30;54.20;;;;;;4974090;28;20988;-64
2023/06/27 15:49:13;;;;;;;1.47;1.37;;;25.30;54.60;;;;;;4974216;28;20216;-64
2023/06/27 15:51:39;;;;;;;1.50;1.40;;;25.40;55.10;;;;;;4974376;28;20427;-65
2023/06/27 15:54:05;;;;;;;1.27;1.23;;;25.40;54.70;;;;;;4973415;28;20415;-64
2023/06/27 15:56:30;;;;;;;1.50;1.40;;;25.40;54.00;;;;;;4973836;28;20205;-64
2023/06/27 15:58:56;;;;;;;1.00;1.00;;;25.20;54.90;;;;;;4973408;28;20274;-64
2023/06/27 16:01:21;;;;;;;1.23;1.23;;;25.20;55.00;;;;;;4973685;28;20187;-64
2023/06/27 16:03:47;;;;;;;1.70;1.60;;;25.10;55.70;;;;;;4973771;28;20192;-64
2023/06/27 16:06:12;;;;;;;1.07;1.07;;;25.00;55.60;;;;;;4973816;28;20204;-65
2023/06/27 16:08:38;;;;;;;1.17;1.17;;;24.80;55.60;;;;;;4969185;28;20259;-66
2023/06/27 16:11:04;;;;;;;1.30;1.20;;;24.70;56.00;;;;;;4954902;29;20559;-66
2023/06/27 16:13:29;;;;;;;1.23;1.17;;;24.60;56.50;;;;;;4954410;29;20181;-64
2023/06/27 16:15:55;;;;;;;1.30;1.30;;;24.50;57.10;;;;;;4954390;29;20205;-66
2023/06/27 16:18:21;;;;;;;1.40;1.33;;;24.50;57.50;;;;;;4955034;29;20191;-66
2023/06/27 16:20:49;;;;;;;1.60;1.27;;;24.50;58.10;;;;;;4955135;29;20177;-66
2023/06/27 16:23:15;;;;;;;1.40;1.40;;;24.40;57.40;;;;;;4954166;28;20420;-65
2023/06/27 16:25:42;;;;;;;1.47;1.37;;;24.40;57.70;;;;;;4954316;29;20580;-64
2023/06/27 16:28:07;;;;;;;1.53;1.43;;;24.40;58.00;;;;;;4954587;29;20471;-65
2023/06/27 16:30:34;;;;;;;1.30;1.17;;;24.30;57.50;;;;;;4954333;28;20856;-63
2023/06/27 16:33:00;;;;;;;1.50;1.30;;;24.20;57.70;;;;;;4972395;28;20259;-64
2023/06/27 16:35:27;;;;;;;1.10;1.10;;;24.10;58.00;;;;;;4976654;28;20589;-62
2023/06/27 16:37:53;;;;;;;1.00;1.00;;;24.00;58.40;;;;;;4977306;28;20255;-63
2023/06/27 16:40:18;;;;;;;1.50;1.40;;;24.00;58.50;;;;;;4977289;28;20503;-64
2023/06/27 16:42:44;;;;;;;0.80;0.80;;;24.00;58.60;;;;;;4977021;28;20173;-64
2023/06/27 16:45:10;;;;;;;1.57;1.47;;;23.90;58.70;;;;;;4976854;28;20192;-66
2023/06/27 16:47:35;;;;;;;0.90;0.90;;;23.90;58.50;;;;;;4977282;28;20164;-63
2023/06/27 16:50:01;;;;;;;1.33;1.20;;;23.90;59.00;;;;;;4976965;28;20631;-64
2023/06/27 16:52:27;;;;;;;1.37;1.27;;;23.80;58.90;;;;;;4976268;28;20255;-64
2023/06/27 16:54:53;;;;;;;2.50;1.23;;;23.90;59.20;;;;;;4957568;28;21000;-64